DBBB/COO METAR and TAF weather

Enter ICAO airport designator
Station Type Date Time Source
DBBB METAR 2018/12/12 23:00 UTC NOAA

DBBB 122300Z 20007KT 6000 FEW011 29/25 Q1014 NOSIG


Station Type Date Time Source
DBBB Decoded METAR 2018/12/12 23:00 UTC NOAA

Cotonou, Benin (DBBB) 06-21N 002-23E 9M
Dec 12, 2018 - 06:00 PM EST / 2018.12.12 2300 UTC
Wind: from the SSW (200 degrees) at 8 MPH (7 KT):0
Visibility: 3 mile(s):0
Sky conditions: mostly clear
Temperature: 84 F (29 C)
Dew Point: 77 F (25 C)
Relative Humidity: 79%
Pressure (altimeter): 29.94 in. Hg (1014 hPa)
ob: DBBB 122300Z 20007KT 6000 FEW011 29/25 Q1014 NOSIG
cycle: 23

Station Type Date Time Source
DBBB TAF 2018/12/12 18:27 UTC NOAA

TAF TAF DBBB 121700Z 1218/1324 20010KT 6000 SCT013
TEMPO 1304/1310 VRB02KT 3000 BR
BECMG 1310/1312 02008KT 3500 HZ
BECMG 1315/1317 18010KT


Example: see airport list